createdAt,value
2022-10-30T00:01:19.272Z,17.88
2022-10-30T00:03:47.217Z,20.30
2022-10-30T00:06:15.102Z,15.27
2022-10-30T00:08:43.415Z,23.48
2022-10-30T00:11:12.395Z,16.15
2022-10-30T00:13:43.467Z,17.63
2022-10-30T00:16:11.247Z,16.58
2022-10-30T00:18:43.439Z,20.63
2022-10-30T00:21:15.507Z,19.85
2022-10-30T00:23:50.297Z,23.48
2022-10-30T00:26:18.451Z,16.70
2022-10-30T00:28:52.767Z,19.85
2022-10-30T00:31:21.131Z,18.23
2022-10-30T00:33:52.558Z,20.02
2022-10-30T00:36:20.948Z,14.13
2022-10-30T00:38:48.747Z,13.02
2022-10-30T00:41:17.562Z,19.95
2022-10-30T00:43:45.271Z,15.75
2022-10-30T00:46:31.608Z,12.85
2022-10-30T00:49:10.103Z,18.55
2022-10-30T00:51:38.322Z,17.30
2022-10-30T00:54:06.074Z,17.08
2022-10-30T00:56:33.874Z,18.73
2022-10-30T00:59:09.945Z,18.48
2022-10-30T01:01:39.396Z,19.90
2022-10-30T01:04:08.210Z,17.63
2022-10-30T01:06:40.297Z,18.65
2022-10-30T01:09:08.197Z,18.38
2022-10-30T01:11:36.688Z,18.90
2022-10-30T01:14:06.364Z,22.58
2022-10-30T01:16:40.148Z,17.17
2022-10-30T01:19:40.711Z,17.42
2022-10-30T01:22:18.668Z,18.85
2022-10-30T01:25:12.301Z,20.40
2022-10-30T01:27:54.725Z,15.38
2022-10-30T01:30:59.743Z,17.25
2022-10-30T01:33:58.987Z,14.75
2022-10-30T01:36:38.225Z,19.90
2022-10-30T01:39:14.579Z,16.30
2022-10-30T01:41:42.714Z,18.00
2022-10-30T01:44:14.244Z,15.20
2022-10-30T01:47:08.551Z,21.55
2022-10-30T01:50:02.914Z,18.70
2022-10-30T01:52:38.216Z,20.25
2022-10-30T01:55:31.363Z,22.25
2022-10-30T01:58:12.550Z,20.02
2022-10-30T02:00:40.547Z,20.20
2022-10-30T02:03:08.110Z,17.55
2022-10-30T02:05:47.820Z,19.52
2022-10-30T02:08:15.329Z,16.67
2022-10-30T02:10:44.894Z,20.15
2022-10-30T02:13:13.020Z,21.90
2022-10-30T02:15:43.054Z,20.00
2022-10-30T02:18:11.259Z,21.80
2022-10-30T02:20:41.231Z,18.65
2022-10-30T02:23:13.636Z,18.60
2022-10-30T02:25:42.691Z,22.58
2022-10-30T02:28:13.941Z,14.93
2022-10-30T02:33:12.156Z,18.63
2022-10-30T02:35:41.162Z,17.00
2022-10-30T02:38:09.395Z,19.00
2022-10-30T02:40:37.747Z,15.75
2022-10-30T02:43:08.471Z,16.65
2022-10-30T02:45:36.122Z,19.60
2022-10-30T02:48:04.432Z,20.58
2022-10-30T02:50:32.885Z,22.95
2022-10-30T02:53:01.037Z,17.65
2022-10-30T02:55:29.317Z,19.48
2022-10-30T02:57:57.051Z,18.40
2022-10-30T03:00:24.709Z,18.48
2022-10-30T03:02:56.222Z,18.27
2022-10-30T03:05:24.214Z,20.63
2022-10-30T03:07:52.551Z,17.90
2022-10-30T03:10:20.229Z,17.90
2022-10-30T03:12:47.855Z,20.83
2022-10-30T03:15:16.736Z,17.40
2022-10-30T03:17:44.467Z,17.90
2022-10-30T03:20:12.560Z,21.83
2022-10-30T03:22:41.643Z,19.00
2022-10-30T03:25:09.620Z,18.10
2022-10-30T03:27:39.220Z,20.15
2022-10-30T03:30:07.729Z,18.65
2022-10-30T03:32:36.384Z,20.48
2022-10-30T03:35:05.145Z,25.20
2022-10-30T03:37:34.701Z,19.08
2022-10-30T03:40:03.092Z,24.77
2022-10-30T03:42:33.206Z,20.02
2022-10-30T03:45:00.916Z,19.40
2022-10-30T03:47:30.743Z,17.42
2022-10-30T03:49:58.459Z,18.70
2022-10-30T03:52:27.293Z,17.50
2022-10-30T03:54:55.309Z,18.98
2022-10-30T03:57:22.974Z,19.95
2022-10-30T04:00:11.179Z,22.35
2022-10-30T04:02:57.099Z,19.27
2022-10-30T04:05:27.111Z,23.10
2022-10-30T04:07:57.924Z,20.48
2022-10-30T04:10:26.112Z,21.45
2022-10-30T04:13:05.573Z,16.67
2022-10-30T04:15:36.668Z,22.98
2022-10-30T04:18:04.459Z,21.50
2022-10-30T04:20:32.670Z,21.48
2022-10-30T04:23:05.826Z,19.08
2022-10-30T04:25:34.696Z,23.95
2022-10-30T04:28:03.602Z,29.52
2022-10-30T04:30:35.479Z,22.33
2022-10-30T04:33:04.988Z,22.33
2022-10-30T04:35:39.689Z,20.95
2022-10-30T04:38:14.196Z,26.15
2022-10-30T04:40:44.421Z,24.35
2022-10-30T04:43:13.799Z,23.75
2022-10-30T04:45:42.657Z,25.92
2022-10-30T04:48:14.784Z,23.27
2022-10-30T04:50:44.222Z,26.88
2022-10-30T04:53:17.670Z,24.42
2022-10-30T04:55:48.201Z,23.65
2022-10-30T04:58:16.237Z,29.17
2022-10-30T05:00:48.180Z,24.77
2022-10-30T05:03:20.845Z,29.48
2022-10-30T05:05:55.650Z,28.17
2022-10-30T05:08:24.206Z,28.23
2022-10-30T05:10:52.748Z,27.80
2022-10-30T05:13:22.413Z,26.00
2022-10-30T05:15:50.518Z,26.73
2022-10-30T05:18:18.087Z,26.50
2022-10-30T05:20:47.116Z,26.15
2022-10-30T05:23:19.244Z,27.38
2022-10-30T05:25:47.708Z,28.90
2022-10-30T05:28:16.450Z,32.03
2022-10-30T05:30:53.747Z,29.83
2022-10-30T05:33:44.624Z,28.23
2022-10-30T05:36:12.305Z,28.40
2022-10-30T05:41:19.366Z,25.10
2022-10-30T05:43:47.007Z,25.90
2022-10-30T05:46:14.605Z,30.10
2022-10-30T05:48:44.289Z,28.75
2022-10-30T05:51:12.567Z,31.38
2022-10-30T05:53:44.855Z,32.10
2022-10-30T05:56:12.706Z,34.53
2022-10-30T05:58:40.798Z,31.33
2022-10-30T06:01:09.091Z,30.35
2022-10-30T06:03:44.349Z,30.27
2022-10-30T06:06:13.019Z,35.63
2022-10-30T06:08:41.298Z,29.20
2022-10-30T06:11:27.250Z,29.73
2022-10-30T06:13:57.248Z,29.23
2022-10-30T06:16:37.695Z,31.38
2022-10-30T06:19:18.646Z,38.17
2022-10-30T06:21:47.482Z,37.90
2022-10-30T06:24:22.837Z,32.50
2022-10-30T06:27:03.970Z,31.85
2022-10-30T06:29:32.202Z,33.10
2022-10-30T06:32:02.291Z,31.73
2022-10-30T06:34:34.749Z,36.20
2022-10-30T06:37:02.608Z,34.78
2022-10-30T06:39:30.471Z,29.02
2022-10-30T06:42:21.409Z,33.17
2022-10-30T06:45:07.415Z,32.00
2022-10-30T06:47:36.823Z,32.75
2022-10-30T06:50:05.728Z,38.60
2022-10-30T06:52:34.844Z,34.63
2022-10-30T06:55:04.241Z,30.25
2022-10-30T06:57:57.454Z,33.85
2022-10-30T07:00:46.449Z,29.40
2022-10-30T07:03:14.381Z,31.50
2022-10-30T07:05:42.600Z,34.75
2022-10-30T07:08:11.157Z,34.33
2022-10-30T07:10:38.889Z,35.45
2022-10-30T07:13:34.117Z,45.25
2022-10-30T07:16:16.345Z,35.05
2022-10-30T07:18:47.634Z,37.05
2022-10-30T07:21:16.214Z,48.28
2022-10-30T07:23:44.536Z,54.03
2022-10-30T07:26:38.322Z,39.15
2022-10-30T07:29:31.186Z,34.50
2022-10-30T07:32:16.982Z,44.58
2022-10-30T07:34:50.301Z,36.30
2022-10-30T07:37:40.677Z,38.15
2022-10-30T07:40:13.187Z,35.17
2022-10-30T07:43:07.189Z,40.17
2022-10-30T07:45:37.431Z,34.85
2022-10-30T07:48:23.620Z,42.53
2022-10-30T07:51:02.639Z,39.28
2022-10-30T07:53:30.445Z,53.83
2022-10-30T07:55:59.233Z,44.88
2022-10-30T07:58:50.575Z,39.40
2022-10-30T08:01:46.534Z,42.92
2022-10-30T08:04:27.413Z,41.00
2022-10-30T08:07:00.978Z,41.53
2022-10-30T08:09:30.683Z,21.95
2022-10-30T08:11:59.152Z,22.33
2022-10-30T08:14:26.820Z,32.40
2022-10-30T08:16:56.306Z,23.20
2022-10-30T08:19:24.245Z,27.00
2022-10-30T08:21:56.166Z,28.67
2022-10-30T08:24:27.512Z,22.95
2022-10-30T08:29:27.805Z,19.70
2022-10-30T08:31:56.027Z,23.50
2022-10-30T08:34:24.235Z,18.70
2022-10-30T08:36:55.919Z,21.15
2022-10-30T08:39:26.267Z,22.40
2022-10-30T08:41:58.306Z,19.27
2022-10-30T08:44:27.807Z,15.95
2022-10-30T08:47:19.561Z,16.83
2022-10-30T08:49:48.399Z,17.90
2022-10-30T08:52:19.781Z,19.42
2022-10-30T08:54:54.511Z,19.33
2022-10-30T08:57:24.433Z,22.75
2022-10-30T08:59:54.182Z,16.45
2022-10-30T09:02:57.796Z,20.70
2022-10-30T09:06:05.031Z,16.98
2022-10-30T09:08:55.413Z,11.10
2022-10-30T09:11:32.128Z,20.50
2022-10-30T09:14:01.508Z,10.88
2022-10-30T09:16:29.383Z,12.15
2022-10-30T09:18:57.486Z,12.27
2022-10-30T09:21:25.644Z,11.00
2022-10-30T09:23:54.781Z,11.10
2022-10-30T09:26:37.852Z,13.13
2022-10-30T09:29:17.591Z,11.90
2022-10-30T09:34:53.383Z,11.95
2022-10-30T09:37:30.270Z,11.50
2022-10-30T09:40:00.778Z,11.68
2022-10-30T09:42:38.193Z,12.00
2022-10-30T09:45:30.360Z,9.07
2022-10-30T09:48:06.203Z,13.07
2022-10-30T09:51:04.236Z,11.65
2022-10-30T09:53:58.617Z,10.77
2022-10-30T09:56:45.426Z,11.65
2022-10-30T09:59:13.951Z,11.45
2022-10-30T10:02:00.385Z,10.93
2022-10-30T10:04:39.536Z,13.05
2022-10-30T10:07:31.411Z,10.45
2022-10-30T10:10:30.726Z,11.07
2022-10-30T10:13:05.016Z,12.85
2022-10-30T10:15:47.649Z,14.70
2022-10-30T10:18:23.790Z,7.32
2022-10-30T10:20:57.792Z,13.10
2022-10-30T10:23:52.113Z,9.68
2022-10-30T10:26:30.512Z,14.57
2022-10-30T10:29:05.852Z,10.20
2022-10-30T10:31:57.882Z,9.25
2022-10-30T10:34:32.130Z,11.63
2022-10-30T10:37:28.343Z,8.00
2022-10-30T10:40:29.581Z,9.25
2022-10-30T10:43:06.657Z,9.15
2022-10-30T10:46:06.419Z,12.90
2022-10-30T10:48:55.961Z,8.27
2022-10-30T10:51:31.472Z,8.75
2022-10-30T10:54:02.666Z,10.90
2022-10-30T10:56:34.211Z,15.32
2022-10-30T10:59:05.066Z,13.13
2022-10-30T11:01:44.768Z,11.95
2022-10-30T11:04:33.623Z,10.20
2022-10-30T11:07:13.789Z,10.23
2022-10-30T11:09:44.933Z,9.23
2022-10-30T11:12:14.436Z,12.63
2022-10-30T11:14:44.011Z,11.13
2022-10-30T11:17:44.231Z,10.32
2022-10-30T11:20:21.693Z,10.25
2022-10-30T11:22:52.489Z,8.15
2022-10-30T11:25:39.075Z,9.80
2022-10-30T11:28:09.707Z,11.52
2022-10-30T11:30:39.075Z,9.02
2022-10-30T11:33:29.228Z,8.63
2022-10-30T11:35:57.153Z,6.47
2022-10-30T11:38:27.309Z,10.45
2022-10-30T11:43:27.976Z,6.25
2022-10-30T11:45:56.525Z,10.40
2022-10-30T11:48:31.690Z,10.13
2022-10-30T11:51:00.916Z,7.30
2022-10-30T11:53:31.464Z,13.13
2022-10-30T11:56:00.114Z,8.00
2022-10-30T11:58:38.992Z,8.85
2022-10-30T12:01:18.607Z,11.23
2022-10-30T12:03:46.759Z,9.13
2022-10-30T12:06:23.026Z,8.00
2022-10-30T12:09:04.958Z,6.80
2022-10-30T12:11:35.234Z,9.98
2022-10-30T12:14:02.809Z,8.18
2022-10-30T12:16:30.945Z,9.88
2022-10-30T12:19:09.699Z,8.77
2022-10-30T12:21:39.093Z,8.80
2022-10-30T12:24:09.820Z,12.27
2022-10-30T12:26:38.052Z,12.32
2022-10-30T12:29:08.664Z,20.50
2022-10-30T12:32:00.621Z,7.03
2022-10-30T12:34:36.422Z,9.82
2022-10-30T12:37:27.221Z,14.13
2022-10-30T12:39:57.206Z,11.20
2022-10-30T12:42:27.400Z,6.65
2022-10-30T12:45:14.205Z,11.77
2022-10-30T12:47:55.704Z,13.45
2022-10-30T12:50:27.248Z,12.77
2022-10-30T12:53:20.843Z,11.93
2022-10-30T12:55:53.134Z,10.38
2022-10-30T12:58:31.958Z,8.23
2022-10-30T13:01:02.366Z,8.07
2022-10-30T13:03:56.047Z,9.25
2022-10-30T13:06:26.633Z,10.68
2022-10-30T13:09:32.957Z,18.48
2022-10-30T13:12:14.720Z,13.75
2022-10-30T13:14:44.942Z,8.82
2022-10-30T13:17:12.915Z,12.30
2022-10-30T13:19:42.932Z,10.40
2022-10-30T13:22:28.831Z,7.35
2022-10-30T13:25:18.112Z,7.85
2022-10-30T13:28:11.312Z,8.65
2022-10-30T13:30:41.433Z,8.57
2022-10-30T13:33:29.580Z,7.45
2022-10-30T13:36:03.958Z,10.77
2022-10-30T13:38:46.063Z,9.38
2022-10-30T13:41:44.603Z,7.22
2022-10-30T13:44:49.555Z,9.13
2022-10-30T13:47:29.490Z,9.88
2022-10-30T13:50:03.406Z,11.60
2022-10-30T13:52:36.196Z,8.60
2022-10-30T13:55:17.112Z,8.05
2022-10-30T13:57:51.051Z,6.38
2022-10-30T14:00:20.782Z,6.30
2022-10-30T14:03:25.122Z,9.48
2022-10-30T14:06:09.807Z,11.70
2022-10-30T14:09:12.093Z,9.85
2022-10-30T14:11:42.036Z,15.65
2022-10-30T14:14:30.255Z,9.55
2022-10-30T14:17:16.193Z,9.48
2022-10-30T14:20:12.105Z,10.35
2022-10-30T14:22:45.217Z,7.28
2022-10-30T14:25:13.707Z,9.40
2022-10-30T14:27:43.163Z,9.60
2022-10-30T14:30:20.385Z,11.32
2022-10-30T14:32:52.054Z,11.70
2022-10-30T14:35:36.906Z,10.13
2022-10-30T14:38:15.480Z,7.85
2022-10-30T14:40:56.829Z,8.43
2022-10-30T14:43:29.203Z,8.10
2022-10-30T14:46:00.013Z,7.90
2022-10-30T14:48:48.635Z,11.15
2022-10-30T14:51:21.746Z,10.88
2022-10-30T14:53:54.222Z,10.05
2022-10-30T14:56:48.233Z,19.70
2022-10-30T14:59:15.964Z,12.35
2022-10-30T15:02:11.605Z,11.48
2022-10-30T15:05:09.543Z,8.77
2022-10-30T15:07:50.666Z,10.48
2022-10-30T15:10:35.095Z,8.48
2022-10-30T15:13:34.513Z,9.93
2022-10-30T15:16:06.789Z,10.60
2022-10-30T15:18:35.141Z,11.85
2022-10-30T15:21:06.849Z,15.68
2022-10-30T15:23:35.946Z,10.13
2022-10-30T15:26:09.571Z,8.07
2022-10-30T15:28:37.900Z,11.00
2022-10-30T15:31:06.939Z,7.15
2022-10-30T15:33:38.124Z,13.65
2022-10-30T15:36:06.464Z,9.25
2022-10-30T15:38:34.550Z,10.35
2022-10-30T15:41:04.598Z,10.57
2022-10-30T15:43:37.644Z,10.52
2022-10-30T15:46:11.074Z,15.63
2022-10-30T15:48:40.995Z,8.88
2022-10-30T15:51:20.057Z,6.43
2022-10-30T15:53:52.714Z,9.15
2022-10-30T15:56:31.284Z,10.57
2022-10-30T15:59:06.290Z,14.30
2022-10-30T16:01:43.233Z,11.10
2022-10-30T16:04:18.677Z,14.00
2022-10-30T16:06:56.084Z,17.83
2022-10-30T16:09:24.509Z,11.20
2022-10-30T16:11:58.267Z,10.98
2022-10-30T16:14:32.764Z,10.05
2022-10-30T16:17:00.641Z,9.18
2022-10-30T16:19:30.686Z,14.02
2022-10-30T16:22:01.769Z,8.15
2022-10-30T16:24:33.473Z,11.02
2022-10-30T16:27:18.501Z,10.07
2022-10-30T16:29:46.753Z,9.70
2022-10-30T16:32:19.090Z,10.50
2022-10-30T16:34:47.944Z,10.80
2022-10-30T16:37:21.406Z,11.15
2022-10-30T16:39:50.532Z,9.80
2022-10-30T16:42:22.276Z,11.40
2022-10-30T16:44:50.137Z,9.90
2022-10-30T16:47:17.855Z,10.60
2022-10-30T16:49:49.706Z,9.07
2022-10-30T16:52:17.667Z,15.20
2022-10-30T16:54:55.583Z,9.55
2022-10-30T16:57:28.090Z,9.95
2022-10-30T16:59:55.791Z,15.68
2022-10-30T17:02:26.354Z,12.65
2022-10-30T17:05:14.863Z,10.90
2022-10-30T17:07:42.457Z,10.68
2022-10-30T17:10:32.110Z,12.55
2022-10-30T17:13:33.375Z,8.75
2022-10-30T17:16:24.777Z,9.95
2022-10-30T17:19:15.469Z,10.75
2022-10-30T17:21:43.178Z,13.40
2022-10-30T17:24:19.926Z,14.55
2022-10-30T17:26:54.999Z,10.40
2022-10-30T17:29:38.310Z,11.38
2022-10-30T17:32:12.479Z,13.18
2022-10-30T17:34:40.227Z,17.95
2022-10-30T17:37:08.026Z,11.05
2022-10-30T17:39:35.690Z,14.73
2022-10-30T17:42:03.684Z,13.98
2022-10-30T17:44:34.216Z,14.27
2022-10-30T17:47:08.476Z,15.27
2022-10-30T17:49:36.041Z,16.40
2022-10-30T17:52:04.998Z,18.58
2022-10-30T17:54:32.650Z,12.15
2022-10-30T17:57:00.512Z,16.63
2022-10-30T17:59:28.178Z,17.73
2022-10-30T18:01:55.834Z,16.92
2022-10-30T18:04:23.602Z,15.48
2022-10-30T18:06:53.227Z,15.18
2022-10-30T18:09:20.800Z,14.80
2022-10-30T18:11:48.511Z,14.20
2022-10-30T18:14:16.305Z,13.07
2022-10-30T18:16:43.897Z,14.85
2022-10-30T18:19:11.823Z,13.07
2022-10-30T18:21:39.566Z,11.82
2022-10-30T18:24:12.288Z,13.52
2022-10-30T18:26:41.043Z,15.88
2022-10-30T18:29:09.881Z,11.82
2022-10-30T18:31:38.375Z,12.10
2022-10-30T18:34:16.323Z,13.52
2022-10-30T18:36:44.081Z,13.80
2022-10-30T18:39:13.169Z,10.20
2022-10-30T18:41:43.133Z,11.98
2022-10-30T18:44:18.197Z,12.52
2022-10-30T18:46:45.852Z,11.68
2022-10-30T18:49:13.830Z,12.38
2022-10-30T18:51:41.729Z,18.20
2022-10-30T18:54:15.750Z,18.15
2022-10-30T18:56:43.441Z,14.73
2022-10-30T18:59:11.674Z,14.80
2022-10-30T19:01:39.401Z,13.90
2022-10-30T19:04:11.045Z,11.18
2022-10-30T19:06:39.123Z,11.55
2022-10-30T19:09:06.992Z,11.50
2022-10-30T19:11:37.303Z,13.10
2022-10-30T19:14:13.795Z,10.35
2022-10-30T19:16:42.395Z,13.90
2022-10-30T19:19:10.403Z,10.70
2022-10-30T19:21:39.495Z,9.82
2022-10-30T19:24:10.098Z,15.05
2022-10-30T19:26:37.909Z,14.23
2022-10-30T19:29:05.876Z,12.48
2022-10-30T19:31:34.315Z,13.70
2022-10-30T19:34:01.936Z,11.77
2022-10-30T19:36:36.451Z,10.05
2022-10-30T19:39:10.540Z,13.23
2022-10-30T19:41:40.092Z,11.05
2022-10-30T19:44:08.177Z,10.27
2022-10-30T19:46:36.819Z,10.93
2022-10-30T19:49:17.834Z,9.63
2022-10-30T19:51:45.732Z,10.27
2022-10-30T19:54:13.532Z,10.55
2022-10-30T19:56:43.648Z,9.07
2022-10-30T19:59:13.441Z,9.65
2022-10-30T20:01:42.227Z,13.02
2022-10-30T20:04:10.077Z,12.20
2022-10-30T20:06:37.659Z,10.32
2022-10-30T20:09:05.606Z,12.27
2022-10-30T20:11:33.516Z,10.75
2022-10-30T20:14:01.088Z,12.77
2022-10-30T20:16:28.630Z,11.00
2022-10-30T20:18:56.991Z,11.23
2022-10-30T20:21:25.898Z,8.45
2022-10-30T20:23:53.898Z,8.85
2022-10-30T20:26:27.226Z,6.70
2022-10-30T20:28:54.917Z,10.10
2022-10-30T20:31:22.689Z,12.50
2022-10-30T20:33:50.302Z,7.53
2022-10-30T20:36:18.520Z,9.55
2022-10-30T20:38:46.099Z,9.18
2022-10-30T20:41:22.396Z,12.23
2022-10-30T20:43:50.770Z,8.30
2022-10-30T20:46:18.900Z,10.30
2022-10-30T20:48:46.559Z,9.40
2022-10-30T20:51:14.199Z,9.43
2022-10-30T20:53:41.782Z,11.43
2022-10-30T20:56:09.427Z,12.18
2022-10-30T20:58:37.246Z,7.47
2022-10-30T21:01:05.418Z,8.82
2022-10-30T21:03:33.166Z,13.23
2022-10-30T21:06:01.220Z,11.15
2022-10-30T21:08:31.597Z,8.80
2022-10-30T21:11:04.035Z,13.43
2022-10-30T21:13:33.255Z,6.28
2022-10-30T21:16:03.605Z,8.57
2022-10-30T21:18:32.616Z,7.85
2022-10-30T21:21:11.736Z,7.80
2022-10-30T21:23:39.496Z,10.30
2022-10-30T21:26:08.004Z,8.80
2022-10-30T21:28:36.044Z,9.85
2022-10-30T21:31:09.135Z,10.52
2022-10-30T21:33:37.196Z,11.35
2022-10-30T21:36:13.707Z,9.63
2022-10-30T21:38:42.539Z,9.18
2022-10-30T21:41:11.390Z,9.38
2022-10-30T21:43:39.260Z,5.88
2022-10-30T21:46:11.447Z,6.63
2022-10-30T21:48:40.373Z,9.57
2022-10-30T21:51:16.961Z,9.57
2022-10-30T21:53:45.186Z,7.25
2022-10-30T21:56:21.716Z,6.68
2022-10-30T21:58:49.783Z,10.43
2022-10-30T22:01:25.400Z,8.63
2022-10-30T22:03:53.448Z,7.85
2022-10-30T22:06:22.028Z,9.30
2022-10-30T22:08:51.924Z,7.85
2022-10-30T22:11:19.764Z,8.73
2022-10-30T22:13:48.015Z,7.63
2022-10-30T22:16:15.788Z,6.50
2022-10-30T22:18:44.007Z,5.43
2022-10-30T22:21:12.529Z,6.57
2022-10-30T22:23:41.600Z,7.78
2022-10-30T22:26:15.167Z,6.25
2022-10-30T22:28:44.836Z,8.30
2022-10-30T22:31:15.694Z,6.95
2022-10-30T22:33:46.644Z,9.77
2022-10-30T22:36:21.012Z,8.93
2022-10-30T22:39:04.311Z,5.13
2022-10-30T22:41:36.433Z,9.10
2022-10-30T22:44:10.206Z,7.32
2022-10-30T22:46:38.110Z,7.10
2022-10-30T22:49:06.638Z,5.85
2022-10-30T22:51:35.264Z,4.50
2022-10-30T22:54:04.548Z,6.00
2022-10-30T22:56:33.316Z,7.32
2022-10-30T22:59:02.209Z,9.45
2022-10-30T23:01:31.598Z,6.60
2022-10-30T23:04:00.985Z,7.25
2022-10-30T23:06:29.471Z,9.70
2022-10-30T23:08:59.466Z,6.32
2022-10-30T23:11:27.394Z,12.05
2022-10-30T23:13:55.044Z,8.13
2022-10-30T23:16:23.647Z,6.25
2022-10-30T23:18:53.595Z,9.40
2022-10-30T23:21:22.655Z,11.60
2022-10-30T23:23:53.117Z,8.18
2022-10-30T23:26:25.500Z,6.25
2022-10-30T23:28:54.188Z,4.85
2022-10-30T23:31:28.224Z,5.57
2022-10-30T23:33:57.980Z,5.68
2022-10-30T23:36:25.699Z,7.03
2022-10-30T23:38:55.106Z,6.07
2022-10-30T23:41:23.509Z,6.80
2022-10-30T23:43:55.090Z,10.05
2022-10-30T23:46:22.972Z,9.38
2022-10-30T23:48:50.597Z,10.57
2022-10-30T23:51:18.521Z,5.90
2022-10-30T23:56:17.848Z,8.18
2022-10-30T23:58:46.623Z,7.25
